sensor_id;sensor_type;location;lat;lon;timestamp;P1;durP1;ratioP1;P2;durP2;ratioP2
12222;SDS011;6174;49.058;8.524;2022-12-11T06:00:41;25.23;;;18.50;;
12222;SDS011;6174;49.058;8.524;2022-12-11T06:03:08;25.13;;;19.43;;
12222;SDS011;6174;49.058;8.524;2022-12-11T06:05:36;25.47;;;18.73;;
12222;SDS011;6174;49.058;8.524;2022-12-11T06:08:03;27.97;;;20.00;;
12222;SDS011;6174;49.058;8.524;2022-12-11T06:10:30;24.50;;;18.10;;
12222;SDS011;6174;49.058;8.524;2022-12-11T06:12:57;24.50;;;19.20;;
12222;SDS011;6174;49.058;8.524;2022-12-11T06:15:24;26.87;;;19.30;;
12222;SDS011;6174;49.058;8.524;2022-12-11T06:17:52;24.73;;;17.97;;
12222;SDS011;6174;49.058;8.524;2022-12-11T06:20:19;23.27;;;17.67;;
12222;SDS011;6174;49.058;8.524;2022-12-11T06:22:45;23.77;;;17.80;;
12222;SDS011;6174;49.058;8.524;2022-12-11T06:25:12;26.47;;;18.77;;
12222;SDS011;6174;49.058;8.524;2022-12-11T06:27:39;24.63;;;18.43;;
12222;SDS011;6174;49.058;8.524;2022-12-11T06:30:06;23.10;;;17.83;;
12222;SDS011;6174;49.058;8.524;2022-12-11T06:32:34;25.27;;;18.20;;
12222;SDS011;6174;49.058;8.524;2022-12-11T06:35:02;25.17;;;18.23;;
12222;SDS011;6174;49.058;8.524;2022-12-11T06:37:29;23.37;;;17.77;;
12222;SDS011;6174;49.058;8.524;2022-12-11T06:39:56;25.00;;;17.57;;
12222;SDS011;6174;49.058;8.524;2022-12-11T06:42:23;22.43;;;17.13;;
12222;SDS011;6174;49.058;8.524;2022-12-11T06:44:49;23.63;;;18.20;;
12222;SDS011;6174;49.058;8.524;2022-12-11T06:47:16;23.33;;;16.87;;
12222;SDS011;6174;49.058;8.524;2022-12-11T06:49:43;27.13;;;20.10;;
12222;SDS011;6174;49.058;8.524;2022-12-11T06:52:11;25.07;;;18.37;;
12222;SDS011;6174;49.058;8.524;2022-12-11T06:54:38;24.03;;;18.10;;
12222;SDS011;6174;49.058;8.524;2022-12-11T06:57:04;25.40;;;18.67;;
12222;SDS011;6174;49.058;8.524;2022-12-11T06:59:31;21.73;;;16.97;;
12222;SDS011;6174;49.058;8.524;2022-12-11T07:01:59;24.60;;;18.80;;
12222;SDS011;6174;49.058;8.524;2022-12-11T07:04:25;25.17;;;18.93;;
12222;SDS011;6174;49.058;8.524;2022-12-11T07:06:52;22.50;;;16.80;;
12222;SDS011;6174;49.058;8.524;2022-12-11T07:09:20;24.13;;;17.70;;
12222;SDS011;6174;49.058;8.524;2022-12-11T07:11:48;24.73;;;17.20;;
12222;SDS011;6174;49.058;8.524;2022-12-11T07:14:15;23.50;;;17.37;;
12222;SDS011;6174;49.058;8.524;2022-12-11T07:16:41;23.83;;;18.23;;
12222;SDS011;6174;49.058;8.524;2022-12-11T07:19:08;23.93;;;16.83;;
12222;SDS011;6174;49.058;8.524;2022-12-11T07:21:35;26.47;;;18.03;;
12222;SDS011;6174;49.058;8.524;2022-12-11T07:24:02;25.33;;;18.17;;
12222;SDS011;6174;49.058;8.524;2022-12-11T07:26:31;24.37;;;17.90;;
12222;SDS011;6174;49.058;8.524;2022-12-11T07:28:58;26.63;;;18.80;;
12222;SDS011;6174;49.058;8.524;2022-12-11T07:31:26;24.93;;;17.77;;
12222;SDS011;6174;49.058;8.524;2022-12-11T07:33:54;23.73;;;17.93;;
12222;SDS011;6174;49.058;8.524;2022-12-11T07:36:22;24.83;;;18.50;;
12222;SDS011;6174;49.058;8.524;2022-12-11T07:38:49;25.43;;;17.77;;
12222;SDS011;6174;49.058;8.524;2022-12-11T07:41:17;23.90;;;17.03;;
12222;SDS011;6174;49.058;8.524;2022-12-11T07:43:45;25.97;;;18.10;;
12222;SDS011;6174;49.058;8.524;2022-12-11T07:46:13;25.97;;;17.70;;
12222;SDS011;6174;49.058;8.524;2022-12-11T07:48:42;24.90;;;17.90;;
12222;SDS011;6174;49.058;8.524;2022-12-11T07:51:10;25.60;;;19.63;;
12222;SDS011;6174;49.058;8.524;2022-12-11T07:53:39;23.43;;;17.67;;
12222;SDS011;6174;49.058;8.524;2022-12-11T07:56:06;25.90;;;18.53;;
12222;SDS011;6174;49.058;8.524;2022-12-11T07:58:33;25.67;;;18.37;;
12222;SDS011;6174;49.058;8.524;2022-12-11T08:01:04;21.77;;;15.87;;
12222;SDS011;6174;49.058;8.524;2022-12-11T08:03:31;24.17;;;18.27;;
12222;SDS011;6174;49.058;8.524;2022-12-11T08:05:58;23.43;;;17.37;;
12222;SDS011;6174;49.058;8.524;2022-12-11T08:08:24;27.07;;;18.20;;
12222;SDS011;6174;49.058;8.524;2022-12-11T08:10:51;24.50;;;16.93;;
12222;SDS011;6174;49.058;8.524;2022-12-11T08:13:18;25.13;;;18.17;;
12222;SDS011;6174;49.058;8.524;2022-12-11T08:15:45;24.97;;;17.30;;
12222;SDS011;6174;49.058;8.524;2022-12-11T08:18:14;23.27;;;16.60;;
12222;SDS011;6174;49.058;8.524;2022-12-11T08:20:41;22.30;;;16.17;;
12222;SDS011;6174;49.058;8.524;2022-12-11T08:23:07;23.07;;;18.37;;
12222;SDS011;6174;49.058;8.524;2022-12-11T08:25:34;24.87;;;17.80;;
12222;SDS011;6174;49.058;8.524;2022-12-11T08:28:01;22.87;;;16.53;;
12222;SDS011;6174;49.058;8.524;2022-12-11T08:30:28;23.40;;;16.83;;
12222;SDS011;6174;49.058;8.524;2022-12-11T08:32:55;23.97;;;17.00;;
12222;SDS011;6174;49.058;8.524;2022-12-11T08:35:25;23.83;;;17.27;;
12222;SDS011;6174;49.058;8.524;2022-12-11T08:37:51;22.13;;;16.20;;
12222;SDS011;6174;49.058;8.524;2022-12-11T08:40:18;25.03;;;17.43;;
12222;SDS011;6174;49.058;8.524;2022-12-11T08:42:46;23.73;;;17.30;;
12222;SDS011;6174;49.058;8.524;2022-12-11T08:45:12;25.07;;;18.37;;
12222;SDS011;6174;49.058;8.524;2022-12-11T08:47:40;23.67;;;17.20;;
12222;SDS011;6174;49.058;8.524;2022-12-11T08:50:07;24.53;;;18.57;;
12222;SDS011;6174;49.058;8.524;2022-12-11T08:52:35;23.90;;;18.17;;
12222;SDS011;6174;49.058;8.524;2022-12-11T08:55:02;24.30;;;16.93;;
12222;SDS011;6174;49.058;8.524;2022-12-11T08:57:30;24.27;;;16.77;;
12222;SDS011;6174;49.058;8.524;2022-12-11T08:59:56;21.23;;;15.77;;
12222;SDS011;6174;49.058;8.524;2022-12-11T09:02:23;21.53;;;15.93;;
12222;SDS011;6174;49.058;8.524;2022-12-11T09:04:50;22.60;;;16.03;;
12222;SDS011;6174;49.058;8.524;2022-12-11T09:07:17;22.47;;;15.53;;
12222;SDS011;6174;49.058;8.524;2022-12-11T09:09:45;21.73;;;15.47;;
12222;SDS011;6174;49.058;8.524;2022-12-11T09:12:11;23.23;;;16.30;;
12222;SDS011;6174;49.058;8.524;2022-12-11T09:14:40;20.00;;;15.27;;
12222;SDS011;6174;49.058;8.524;2022-12-11T09:17:06;21.07;;;15.30;;
12222;SDS011;6174;49.058;8.524;2022-12-11T09:19:33;21.13;;;15.30;;
12222;SDS011;6174;49.058;8.524;2022-12-11T09:22:00;23.70;;;15.97;;
12222;SDS011;6174;49.058;8.524;2022-12-11T09:24:29;22.07;;;16.00;;
12222;SDS011;6174;49.058;8.524;2022-12-11T09:26:57;19.33;;;13.60;;
12222;SDS011;6174;49.058;8.524;2022-12-11T09:29:24;19.93;;;15.10;;
12222;SDS011;6174;49.058;8.524;2022-12-11T09:31:51;22.07;;;16.10;;
12222;SDS011;6174;49.058;8.524;2022-12-11T09:34:19;22.37;;;15.73;;
12222;SDS011;6174;49.058;8.524;2022-12-11T09:36:49;23.73;;;15.90;;
12222;SDS011;6174;49.058;8.524;2022-12-11T09:39:16;22.33;;;16.40;;
12222;SDS011;6174;49.058;8.524;2022-12-11T09:41:48;20.70;;;14.73;;
12222;SDS011;6174;49.058;8.524;2022-12-11T09:44:27;22.93;;;16.63;;
12222;SDS011;6174;49.058;8.524;2022-12-11T09:46:59;21.03;;;14.90;;
12222;SDS011;6174;49.058;8.524;2022-12-11T09:49:33;22.10;;;16.27;;
12222;SDS011;6174;49.058;8.524;2022-12-11T09:52:08;21.67;;;16.10;;
12222;SDS011;6174;49.058;8.524;2022-12-11T09:54:39;23.67;;;17.00;;
12222;SDS011;6174;49.058;8.524;2022-12-11T09:57:17;24.27;;;16.50;;
12222;SDS011;6174;49.058;8.524;2022-12-11T10:00:02;23.07;;;16.97;;
12222;SDS011;6174;49.058;8.524;2022-12-11T10:02:41;25.23;;;17.50;;
12222;SDS011;6174;49.058;8.524;2022-12-11T10:05:24;24.83;;;17.33;;
12222;SDS011;6174;49.058;8.524;2022-12-11T10:08:00;20.87;;;16.27;;
12222;SDS011;6174;49.058;8.524;2022-12-11T10:10:36;25.83;;;17.43;;
12222;SDS011;6174;49.058;8.524;2022-12-11T10:13:09;28.33;;;21.07;;
12222;SDS011;6174;49.058;8.524;2022-12-11T10:15:53;22.03;;;15.33;;
12222;SDS011;6174;49.058;8.524;2022-12-11T10:18:22;22.13;;;17.13;;
12222;SDS011;6174;49.058;8.524;2022-12-11T10:20:51;24.27;;;17.63;;
12222;SDS011;6174;49.058;8.524;2022-12-11T10:23:21;25.30;;;18.87;;
12222;SDS011;6174;49.058;8.524;2022-12-11T10:25:52;24.10;;;17.80;;
12222;SDS011;6174;49.058;8.524;2022-12-11T10:28:26;20.50;;;14.70;;
12222;SDS011;6174;49.058;8.524;2022-12-11T10:30:57;21.43;;;15.07;;
12222;SDS011;6174;49.058;8.524;2022-12-11T10:33:30;22.37;;;16.37;;
12222;SDS011;6174;49.058;8.524;2022-12-11T10:36:05;22.07;;;16.00;;
12222;SDS011;6174;49.058;8.524;2022-12-11T10:38:35;26.30;;;19.00;;
12222;SDS011;6174;49.058;8.524;2022-12-11T10:41:09;20.23;;;15.27;;
12222;SDS011;6174;49.058;8.524;2022-12-11T10:43:39;22.57;;;16.87;;
12222;SDS011;6174;49.058;8.524;2022-12-11T10:46:14;22.37;;;17.03;;
12222;SDS011;6174;49.058;8.524;2022-12-11T10:48:45;23.00;;;17.07;;
12222;SDS011;6174;49.058;8.524;2022-12-11T10:51:13;22.63;;;16.77;;
12222;SDS011;6174;49.058;8.524;2022-12-11T10:53:40;21.37;;;16.83;;
12222;SDS011;6174;49.058;8.524;2022-12-11T10:56:08;22.70;;;16.77;;
12222;SDS011;6174;49.058;8.524;2022-12-11T10:58:37;22.70;;;16.83;;
12222;SDS011;6174;49.058;8.524;2022-12-11T11:01:17;21.30;;;15.87;;
12222;SDS011;6174;49.058;8.524;2022-12-11T11:03:51;20.70;;;15.40;;
12222;SDS011;6174;49.058;8.524;2022-12-11T11:06:21;21.60;;;16.53;;
12222;SDS011;6174;49.058;8.524;2022-12-11T11:08:50;21.67;;;16.33;;
12222;SDS011;6174;49.058;8.524;2022-12-11T11:11:25;22.50;;;15.53;;
12222;SDS011;6174;49.058;8.524;2022-12-11T11:14:09;20.33;;;15.13;;
12222;SDS011;6174;49.058;8.524;2022-12-11T11:16:42;25.53;;;17.20;;
12222;SDS011;6174;49.058;8.524;2022-12-11T11:19:15;22.43;;;16.57;;
12222;SDS011;6174;49.058;8.524;2022-12-11T11:21:46;23.30;;;16.80;;
12222;SDS011;6174;49.058;8.524;2022-12-11T11:26:53;21.17;;;14.10;;
12222;SDS011;6174;49.058;8.524;2022-12-11T11:29:24;20.33;;;14.77;;
12222;SDS011;6174;49.058;8.524;2022-12-11T11:31:56;20.70;;;15.67;;
12222;SDS011;6174;49.058;8.524;2022-12-11T11:34:37;19.23;;;15.57;;
12222;SDS011;6174;49.058;8.524;2022-12-11T11:37:04;26.30;;;18.03;;
12222;SDS011;6174;49.058;8.524;2022-12-11T11:39:33;21.57;;;16.13;;
12222;SDS011;6174;49.058;8.524;2022-12-11T11:42:05;21.80;;;16.63;;
12222;SDS011;6174;49.058;8.524;2022-12-11T11:44:39;23.33;;;18.30;;
12222;SDS011;6174;49.058;8.524;2022-12-11T11:47:12;22.73;;;17.23;;
12222;SDS011;6174;49.058;8.524;2022-12-11T11:49:45;24.57;;;16.80;;
12222;SDS011;6174;49.058;8.524;2022-12-11T11:52:19;21.00;;;16.30;;
12222;SDS011;6174;49.058;8.524;2022-12-11T11:54:52;22.70;;;15.67;;
12222;SDS011;6174;49.058;8.524;2022-12-11T11:57:28;22.07;;;17.03;;
12222;SDS011;6174;49.058;8.524;2022-12-11T12:00:01;24.70;;;18.07;;
12222;SDS011;6174;49.058;8.524;2022-12-11T12:02:36;24.53;;;17.83;;
12222;SDS011;6174;49.058;8.524;2022-12-11T12:05:03;21.23;;;16.77;;
12222;SDS011;6174;49.058;8.524;2022-12-11T12:07:32;21.93;;;18.13;;
12222;SDS011;6174;49.058;8.524;2022-12-11T12:10:11;21.27;;;16.30;;
12222;SDS011;6174;49.058;8.524;2022-12-11T12:12:48;22.40;;;17.03;;
12222;SDS011;6174;49.058;8.524;2022-12-11T12:15:26;22.20;;;16.77;;
12222;SDS011;6174;49.058;8.524;2022-12-11T12:18:01;21.40;;;16.67;;
12222;SDS011;6174;49.058;8.524;2022-12-11T12:20:40;21.93;;;17.23;;
12222;SDS011;6174;49.058;8.524;2022-12-11T12:26:05;20.53;;;15.93;;
12222;SDS011;6174;49.058;8.524;2022-12-11T12:28:39;21.50;;;17.17;;
12222;SDS011;6174;49.058;8.524;2022-12-11T12:31:16;21.07;;;16.23;;
12222;SDS011;6174;49.058;8.524;2022-12-11T12:33:59;24.23;;;17.00;;
12222;SDS011;6174;49.058;8.524;2022-12-11T12:36:33;22.03;;;16.10;;
12222;SDS011;6174;49.058;8.524;2022-12-11T12:39:10;23.43;;;17.77;;
12222;SDS011;6174;49.058;8.524;2022-12-11T12:41:48;23.87;;;18.00;;
12222;SDS011;6174;49.058;8.524;2022-12-11T12:44:23;22.70;;;16.57;;
12222;SDS011;6174;49.058;8.524;2022-12-11T12:46:54;22.30;;;17.10;;
12222;SDS011;6174;49.058;8.524;2022-12-11T12:49:31;39.73;;;28.00;;
12222;SDS011;6174;49.058;8.524;2022-12-11T12:52:02;36.40;;;26.93;;
12222;SDS011;6174;49.058;8.524;2022-12-11T12:54:31;24.30;;;17.57;;
12222;SDS011;6174;49.058;8.524;2022-12-11T12:57:00;25.27;;;18.27;;
12222;SDS011;6174;49.058;8.524;2022-12-11T12:59:29;23.13;;;18.17;;
12222;SDS011;6174;49.058;8.524;2022-12-11T13:01:56;23.07;;;17.37;;
12222;SDS011;6174;49.058;8.524;2022-12-11T13:04:28;23.67;;;17.60;;
12222;SDS011;6174;49.058;8.524;2022-12-11T13:07:17;24.10;;;17.60;;
12222;SDS011;6174;49.058;8.524;2022-12-11T13:09:55;29.93;;;20.83;;
12222;SDS011;6174;49.058;8.524;2022-12-11T13:12:30;28.60;;;19.47;;
12222;SDS011;6174;49.058;8.524;2022-12-11T13:14:58;26.77;;;21.13;;
12222;SDS011;6174;49.058;8.524;2022-12-11T13:17:33;27.40;;;19.33;;
12222;SDS011;6174;49.058;8.524;2022-12-11T13:20:12;26.43;;;20.50;;
12222;SDS011;6174;49.058;8.524;2022-12-11T13:22:46;24.03;;;19.27;;
12222;SDS011;6174;49.058;8.524;2022-12-11T13:25:17;23.03;;;17.00;;
12222;SDS011;6174;49.058;8.524;2022-12-11T13:27:48;23.27;;;18.27;;
12222;SDS011;6174;49.058;8.524;2022-12-11T13:30:21;22.40;;;17.97;;
12222;SDS011;6174;49.058;8.524;2022-12-11T13:32:54;21.60;;;17.83;;
12222;SDS011;6174;49.058;8.524;2022-12-11T13:35:28;21.47;;;15.77;;
12222;SDS011;6174;49.058;8.524;2022-12-11T13:37:59;20.40;;;15.83;;
12222;SDS011;6174;49.058;8.524;2022-12-11T13:40:32;22.17;;;16.33;;
12222;SDS011;6174;49.058;8.524;2022-12-11T13:43:04;21.07;;;16.23;;
12222;SDS011;6174;49.058;8.524;2022-12-11T13:45:38;20.10;;;15.43;;
12222;SDS011;6174;49.058;8.524;2022-12-11T13:48:14;19.60;;;15.50;;
12222;SDS011;6174;49.058;8.524;2022-12-11T13:50:47;20.20;;;14.40;;
12222;SDS011;6174;49.058;8.524;2022-12-11T13:53:18;20.27;;;15.37;;
12222;SDS011;6174;49.058;8.524;2022-12-11T13:55:53;19.80;;;15.57;;
12222;SDS011;6174;49.058;8.524;2022-12-11T13:58:22;21.90;;;16.13;;
12222;SDS011;6174;49.058;8.524;2022-12-11T14:00:53;18.57;;;14.47;;
12222;SDS011;6174;49.058;8.524;2022-12-11T14:03:31;23.23;;;15.63;;
12222;SDS011;6174;49.058;8.524;2022-12-11T14:06:03;19.80;;;15.80;;
12222;SDS011;6174;49.058;8.524;2022-12-11T14:08:34;19.30;;;15.23;;
12222;SDS011;6174;49.058;8.524;2022-12-11T14:11:06;19.43;;;14.80;;
12222;SDS011;6174;49.058;8.524;2022-12-11T14:13:33;22.10;;;15.03;;
12222;SDS011;6174;49.058;8.524;2022-12-11T14:16:02;21.60;;;17.17;;
12222;SDS011;6174;49.058;8.524;2022-12-11T14:18:31;18.83;;;14.30;;
12222;SDS011;6174;49.058;8.524;2022-12-11T14:21:00;22.33;;;16.43;;
12222;SDS011;6174;49.058;8.524;2022-12-11T14:23:31;19.13;;;16.07;;
12222;SDS011;6174;49.058;8.524;2022-12-11T14:25:59;18.97;;;15.03;;
12222;SDS011;6174;49.058;8.524;2022-12-11T14:28:29;18.90;;;15.07;;
12222;SDS011;6174;49.058;8.524;2022-12-11T14:31:02;20.00;;;16.00;;
12222;SDS011;6174;49.058;8.524;2022-12-11T14:33:31;20.20;;;15.07;;
12222;SDS011;6174;49.058;8.524;2022-12-11T14:36:03;18.70;;;15.03;;
12222;SDS011;6174;49.058;8.524;2022-12-11T14:38:32;17.07;;;13.67;;
12222;SDS011;6174;49.058;8.524;2022-12-11T14:41:02;17.67;;;14.27;;
12222;SDS011;6174;49.058;8.524;2022-12-11T14:43:32;17.43;;;13.03;;
12222;SDS011;6174;49.058;8.524;2022-12-11T14:46:03;17.87;;;14.13;;
12222;SDS011;6174;49.058;8.524;2022-12-11T14:48:35;16.13;;;13.20;;
12222;SDS011;6174;49.058;8.524;2022-12-11T14:51:11;17.80;;;13.93;;
12222;SDS011;6174;49.058;8.524;2022-12-11T14:53:42;17.10;;;13.77;;
12222;SDS011;6174;49.058;8.524;2022-12-11T14:56:15;18.47;;;14.60;;
12222;SDS011;6174;49.058;8.524;2022-12-11T14:58:45;17.90;;;13.50;;
12222;SDS011;6174;49.058;8.524;2022-12-11T15:01:25;17.40;;;13.40;;
12222;SDS011;6174;49.058;8.524;2022-12-11T15:04:03;16.90;;;13.90;;
12222;SDS011;6174;49.058;8.524;2022-12-11T15:06:46;16.83;;;14.70;;
12222;SDS011;6174;49.058;8.524;2022-12-11T15:09:15;16.17;;;13.33;;
12222;SDS011;6174;49.058;8.524;2022-12-11T15:11:47;18.70;;;14.33;;
12222;SDS011;6174;49.058;8.524;2022-12-11T15:14:17;17.77;;;15.37;;
12222;SDS011;6174;49.058;8.524;2022-12-11T15:16:45;17.37;;;14.57;;
12222;SDS011;6174;49.058;8.524;2022-12-11T15:19:15;18.30;;;14.07;;
12222;SDS011;6174;49.058;8.524;2022-12-11T15:21:48;16.57;;;14.07;;
12222;SDS011;6174;49.058;8.524;2022-12-11T15:24:23;18.03;;;15.00;;
12222;SDS011;6174;49.058;8.524;2022-12-11T15:26:56;19.63;;;15.80;;
12222;SDS011;6174;49.058;8.524;2022-12-11T15:29:26;19.57;;;15.87;;
12222;SDS011;6174;49.058;8.524;2022-12-11T15:31:57;20.57;;;16.27;;
12222;SDS011;6174;49.058;8.524;2022-12-11T15:34:25;19.03;;;15.70;;
12222;SDS011;6174;49.058;8.524;2022-12-11T15:36:59;21.10;;;16.10;;
12222;SDS011;6174;49.058;8.524;2022-12-11T15:39:26;18.83;;;15.10;;
12222;SDS011;6174;49.058;8.524;2022-12-11T15:41:53;22.97;;;18.63;;
12222;SDS011;6174;49.058;8.524;2022-12-11T15:44:20;23.57;;;19.20;;
12222;SDS011;6174;49.058;8.524;2022-12-11T15:46:49;21.73;;;17.00;;
12222;SDS011;6174;49.058;8.524;2022-12-11T15:49:18;18.63;;;15.33;;
12222;SDS011;6174;49.058;8.524;2022-12-11T15:51:48;21.10;;;17.37;;
12222;SDS011;6174;49.058;8.524;2022-12-11T15:54:16;34.27;;;27.43;;
12222;SDS011;6174;49.058;8.524;2022-12-11T15:56:43;19.90;;;15.70;;
12222;SDS011;6174;49.058;8.524;2022-12-11T15:59:10;18.40;;;14.80;;
12222;SDS011;6174;49.058;8.524;2022-12-11T16:01:37;18.43;;;15.40;;
12222;SDS011;6174;49.058;8.524;2022-12-11T16:04:04;19.97;;;15.50;;
12222;SDS011;6174;49.058;8.524;2022-12-11T16:06:30;18.57;;;15.13;;
12222;SDS011;6174;49.058;8.524;2022-12-11T16:08:58;19.60;;;15.53;;
12222;SDS011;6174;49.058;8.524;2022-12-11T16:11:26;18.87;;;15.47;;
12222;SDS011;6174;49.058;8.524;2022-12-11T16:13:53;17.87;;;14.97;;
12222;SDS011;6174;49.058;8.524;2022-12-11T16:16:19;19.87;;;15.80;;
12222;SDS011;6174;49.058;8.524;2022-12-11T16:18:46;20.03;;;15.50;;
12222;SDS011;6174;49.058;8.524;2022-12-11T16:21:13;18.80;;;15.67;;
12222;SDS011;6174;49.058;8.524;2022-12-11T16:23:40;20.03;;;15.87;;
12222;SDS011;6174;49.058;8.524;2022-12-11T16:26:07;19.90;;;16.00;;
12222;SDS011;6174;49.058;8.524;2022-12-11T16:28:35;19.97;;;15.43;;
12222;SDS011;6174;49.058;8.524;2022-12-11T16:31:02;20.30;;;15.60;;
12222;SDS011;6174;49.058;8.524;2022-12-11T16:33:29;17.63;;;14.17;;
12222;SDS011;6174;49.058;8.524;2022-12-11T16:35:56;19.67;;;15.37;;
12222;SDS011;6174;49.058;8.524;2022-12-11T16:38:23;20.23;;;15.63;;
12222;SDS011;6174;49.058;8.524;2022-12-11T16:40:57;19.67;;;15.53;;
12222;SDS011;6174;49.058;8.524;2022-12-11T16:43:24;19.63;;;15.53;;
12222;SDS011;6174;49.058;8.524;2022-12-11T16:45:53;19.83;;;16.00;;
12222;SDS011;6174;49.058;8.524;2022-12-11T16:48:20;21.83;;;17.13;;
12222;SDS011;6174;49.058;8.524;2022-12-11T16:50:47;22.50;;;18.73;;
12222;SDS011;6174;49.058;8.524;2022-12-11T16:53:14;19.27;;;16.17;;
12222;SDS011;6174;49.058;8.524;2022-12-11T16:55:41;20.97;;;16.27;;
12222;SDS011;6174;49.058;8.524;2022-12-11T16:58:08;21.37;;;17.07;;
12222;SDS011;6174;49.058;8.524;2022-12-11T17:00:39;20.73;;;16.93;;
12222;SDS011;6174;49.058;8.524;2022-12-11T17:03:08;21.73;;;17.60;;
12222;SDS011;6174;49.058;8.524;2022-12-11T17:05:35;23.10;;;18.23;;
12222;SDS011;6174;49.058;8.524;2022-12-11T17:08:04;22.20;;;18.13;;
12222;SDS011;6174;49.058;8.524;2022-12-11T17:10:31;20.93;;;16.87;;
12222;SDS011;6174;49.058;8.524;2022-12-11T17:12:58;22.07;;;17.73;;
12222;SDS011;6174;49.058;8.524;2022-12-11T17:15:25;21.53;;;16.63;;
12222;SDS011;6174;49.058;8.524;2022-12-11T17:17:51;18.23;;;15.70;;
12222;SDS011;6174;49.058;8.524;2022-12-11T17:20:20;18.03;;;16.00;;
12222;SDS011;6174;49.058;8.524;2022-12-11T17:22:46;19.47;;;15.50;;
12222;SDS011;6174;49.058;8.524;2022-12-11T17:25:13;17.27;;;15.20;;
12222;SDS011;6174;49.058;8.524;2022-12-11T17:27:46;18.70;;;16.63;;
12222;SDS011;6174;49.058;8.524;2022-12-11T17:30:13;17.40;;;15.47;;
12222;SDS011;6174;49.058;8.524;2022-12-11T17:32:40;20.43;;;16.90;;
12222;SDS011;6174;49.058;8.524;2022-12-11T17:35:07;21.17;;;17.50;;
12222;SDS011;6174;49.058;8.524;2022-12-11T17:37:36;21.03;;;15.87;;
12222;SDS011;6174;49.058;8.524;2022-12-11T17:40:03;19.03;;;16.97;;
12222;SDS011;6174;49.058;8.524;2022-12-11T17:42:30;21.03;;;17.07;;
12222;SDS011;6174;49.058;8.524;2022-12-11T17:44:57;17.53;;;15.50;;
12222;SDS011;6174;49.058;8.524;2022-12-11T17:47:24;17.83;;;14.90;;
12222;SDS011;6174;49.058;8.524;2022-12-11T17:49:51;18.90;;;16.27;;
12222;SDS011;6174;49.058;8.524;2022-12-11T17:52:17;17.57;;;15.67;;
12222;SDS011;6174;49.058;8.524;2022-12-11T17:54:46;19.83;;;16.40;;
12222;SDS011;6174;49.058;8.524;2022-12-11T17:57:12;19.77;;;17.67;;
12222;SDS011;6174;49.058;8.524;2022-12-11T17:59:39;22.47;;;17.23;;
12222;SDS011;6174;49.058;8.524;2022-12-11T18:02:07;23.43;;;17.23;;
12222;SDS011;6174;49.058;8.524;2022-12-11T18:04:36;21.87;;;18.00;;
12222;SDS011;6174;49.058;8.524;2022-12-11T18:07:03;24.73;;;20.50;;
12222;SDS011;6174;49.058;8.524;2022-12-11T18:09:29;23.17;;;19.03;;
12222;SDS011;6174;49.058;8.524;2022-12-11T18:11:58;22.17;;;18.50;;
12222;SDS011;6174;49.058;8.524;2022-12-11T18:14:24;22.80;;;18.67;;
12222;SDS011;6174;49.058;8.524;2022-12-11T18:16:51;24.60;;;20.83;;
12222;SDS011;6174;49.058;8.524;2022-12-11T18:19:18;24.43;;;19.60;;
12222;SDS011;6174;49.058;8.524;2022-12-11T18:21:46;23.07;;;20.10;;
12222;SDS011;6174;49.058;8.524;2022-12-11T18:24:13;29.40;;;23.60;;
12222;SDS011;6174;49.058;8.524;2022-12-11T18:26:40;27.23;;;22.77;;
12222;SDS011;6174;49.058;8.524;2022-12-11T18:29:09;25.73;;;22.00;;
12222;SDS011;6174;49.058;8.524;2022-12-11T18:31:36;25.33;;;21.90;;
12222;SDS011;6174;49.058;8.524;2022-12-11T18:34:03;56.50;;;42.53;;
12222;SDS011;6174;49.058;8.524;2022-12-11T18:36:30;34.87;;;28.03;;
12222;SDS011;6174;49.058;8.524;2022-12-11T18:38:58;28.23;;;22.87;;
12222;SDS011;6174;49.058;8.524;2022-12-11T18:41:25;26.50;;;22.60;;
12222;SDS011;6174;49.058;8.524;2022-12-11T18:43:52;29.23;;;23.80;;
12222;SDS011;6174;49.058;8.524;2022-12-11T18:46:20;26.03;;;21.73;;
12222;SDS011;6174;49.058;8.524;2022-12-11T18:48:47;24.53;;;21.03;;
12222;SDS011;6174;49.058;8.524;2022-12-11T18:51:15;25.73;;;20.50;;
12222;SDS011;6174;49.058;8.524;2022-12-11T18:53:43;23.17;;;19.13;;
12222;SDS011;6174;49.058;8.524;2022-12-11T18:56:11;20.97;;;17.93;;
12222;SDS011;6174;49.058;8.524;2022-12-11T18:58:40;22.20;;;18.47;;
12222;SDS011;6174;49.058;8.524;2022-12-11T19:01:07;21.43;;;16.90;;
12222;SDS011;6174;49.058;8.524;2022-12-11T19:03:36;22.43;;;16.97;;
12222;SDS011;6174;49.058;8.524;2022-12-11T19:06:06;20.50;;;17.53;;
12222;SDS011;6174;49.058;8.524;2022-12-11T19:08:34;20.70;;;17.57;;
12222;SDS011;6174;49.058;8.524;2022-12-11T19:11:02;22.23;;;18.30;;
12222;SDS011;6174;49.058;8.524;2022-12-11T19:13:29;25.27;;;19.67;;
12222;SDS011;6174;49.058;8.524;2022-12-11T19:15:56;26.67;;;21.53;;
12222;SDS011;6174;49.058;8.524;2022-12-11T19:18:23;40.17;;;29.37;;
12222;SDS011;6174;49.058;8.524;2022-12-11T19:20:52;53.73;;;37.70;;
12222;SDS011;6174;49.058;8.524;2022-12-11T19:23:19;60.83;;;41.07;;
12222;SDS011;6174;49.058;8.524;2022-12-11T19:25:47;51.30;;;38.20;;
12222;SDS011;6174;49.058;8.524;2022-12-11T19:28:14;56.10;;;40.83;;
12222;SDS011;6174;49.058;8.524;2022-12-11T19:30:42;52.50;;;38.57;;
12222;SDS011;6174;49.058;8.524;2022-12-11T19:33:09;47.90;;;34.03;;
12222;SDS011;6174;49.058;8.524;2022-12-11T19:35:36;44.73;;;34.43;;
12222;SDS011;6174;49.058;8.524;2022-12-11T19:38:04;40.47;;;30.60;;
12222;SDS011;6174;49.058;8.524;2022-12-11T19:40:32;49.47;;;38.50;;
12222;SDS011;6174;49.058;8.524;2022-12-11T19:42:59;37.70;;;30.27;;
12222;SDS011;6174;49.058;8.524;2022-12-11T19:45:25;32.53;;;26.47;;
12222;SDS011;6174;49.058;8.524;2022-12-11T19:47:52;29.07;;;24.47;;
12222;SDS011;6174;49.058;8.524;2022-12-11T19:50:19;27.93;;;23.47;;
12222;SDS011;6174;49.058;8.524;2022-12-11T19:52:46;27.23;;;21.57;;
12222;SDS011;6174;49.058;8.524;2022-12-11T19:55:14;26.80;;;20.63;;
12222;SDS011;6174;49.058;8.524;2022-12-11T19:57:43;25.30;;;20.73;;
12222;SDS011;6174;49.058;8.524;2022-12-11T20:00:10;23.33;;;19.63;;
12222;SDS011;6174;49.058;8.524;2022-12-11T20:02:37;27.07;;;21.60;;
12222;SDS011;6174;49.058;8.524;2022-12-11T20:05:04;35.27;;;26.53;;
12222;SDS011;6174;49.058;8.524;2022-12-11T20:07:32;29.20;;;22.70;;
12222;SDS011;6174;49.058;8.524;2022-12-11T20:09:59;26.27;;;21.63;;
12222;SDS011;6174;49.058;8.524;2022-12-11T20:12:27;22.87;;;19.67;;
12222;SDS011;6174;49.058;8.524;2022-12-11T20:14:54;24.17;;;20.63;;
12222;SDS011;6174;49.058;8.524;2022-12-11T20:17:20;26.10;;;20.00;;
12222;SDS011;6174;49.058;8.524;2022-12-11T20:19:48;25.10;;;20.70;;
12222;SDS011;6174;49.058;8.524;2022-12-11T20:22:14;28.00;;;20.97;;
12222;SDS011;6174;49.058;8.524;2022-12-11T20:24:41;30.93;;;23.83;;
12222;SDS011;6174;49.058;8.524;2022-12-11T20:27:08;32.13;;;25.03;;
12222;SDS011;6174;49.058;8.524;2022-12-11T20:29:37;44.43;;;32.53;;
12222;SDS011;6174;49.058;8.524;2022-12-11T20:32:04;35.73;;;26.57;;
12222;SDS011;6174;49.058;8.524;2022-12-11T20:34:31;24.97;;;20.13;;
12222;SDS011;6174;49.058;8.524;2022-12-11T20:36:58;24.77;;;19.70;;
12222;SDS011;6174;49.058;8.524;2022-12-11T20:39:27;27.70;;;21.27;;
12222;SDS011;6174;49.058;8.524;2022-12-11T20:41:55;24.30;;;20.33;;
12222;SDS011;6174;49.058;8.524;2022-12-11T20:44:22;26.07;;;21.20;;
12222;SDS011;6174;49.058;8.524;2022-12-11T20:46:50;24.43;;;20.93;;
12222;SDS011;6174;49.058;8.524;2022-12-11T20:49:17;25.70;;;21.20;;
12222;SDS011;6174;49.058;8.524;2022-12-11T20:51:44;26.10;;;21.23;;